Time;durP1;ratioP1;P1;durP2;ratioP2;P2;SDS_P1;SDS_P2;PMS_P1;PMS_P2;Temp;Humidity;BMP_temperature;BMP_pressure;BME280_temperature;BME280_humidity;BME280_pressure;Samples;Min_cycle;Max_cycle;Signal;HPM_P1;HPM_P2
2022/05/19 00:01:39;;;;;;;13.40;6.50;;;;;;;4.24;56.88;100573.10;430759;1273;141140;-51
2022/05/19 00:11:46;;;;;;;11.90;6.50;;;;;;;4.08;57.10;100568.92;430667;1273;140951;-48
2022/05/19 00:21:52;;;;;;;12.40;5.80;;;;;;;3.95;57.83;100574.20;430931;1273;140949;-49
2022/05/19 00:31:58;;;;;;;14.50;6.60;;;;;;;3.84;58.13;100574.62;430875;1273;140501;-50
2022/05/19 00:52:43;;;;;;;13.00;7.00;;;;;;;3.57;58.64;100561.47;429407;1273;142435;-47
2022/05/19 01:02:53;;;;;;;13.70;5.80;;;;;;;3.46;59.08;100562.20;431058;1272;141205;-47
2022/05/19 01:12:59;;;;;;;12.00;4.50;;;;;;;3.42;59.36;100563.33;431545;1273;141450;-46
2022/05/19 01:23:18;;;;;;;13.10;6.10;;;;;;;3.41;59.47;100559.87;430265;1273;142298;-52
2022/05/19 01:33:23;;;;;;;10.60;5.60;;;;;;;3.35;59.73;100556.51;430999;1273;140501;-51
2022/05/19 01:43:38;;;;;;;15.40;5.30;;;;;;;3.28;59.58;100554.39;430478;1273;140876;-47
2022/05/19 01:53:54;;;;;;;13.70;6.60;;;;;;;3.14;60.05;100553.08;430850;1273;141395;-47
2022/05/19 02:04:06;;;;;;;9.20;4.80;;;;;;;3.03;60.13;100550.67;431584;1273;142060;-47
2022/05/19 02:14:17;;;;;;;11.30;5.50;;;;;;;2.96;60.39;100555.65;429660;1272;142164;-46
2022/05/19 02:24:26;;;;;;;5.80;4.50;;;;;;;2.89;60.53;100547.45;430517;1272;143385;-48
2022/05/19 02:34:32;;;;;;;8.70;4.30;;;;;;;2.90;60.45;100547.95;431782;1273;142636;-50
2022/05/19 02:44:38;;;;;;;6.20;3.90;;;;;;;3.02;60.06;100549.33;430535;1273;146310;-51
2022/05/19 02:54:44;;;;;;;11.70;5.40;;;;;;;3.28;59.49;100543.83;430780;1273;143788;-47
2022/05/19 03:04:50;;;;;;;10.40;4.40;;;;;;;3.48;59.48;100548.30;429388;1273;448355;-49
2022/05/19 03:14:56;;;;;;;9.70;4.50;;;;;;;4.09;58.77;100544.27;431455;1273;142603;-48
2022/05/19 03:25:03;;;;;;;8.20;4.60;;;;;;;4.74;57.73;100546.27;430685;1273;141673;-48
2022/05/19 03:35:11;;;;;;;11.50;3.50;;;;;;;5.20;57.36;100544.08;430545;1272;141100;-48
2022/05/19 03:45:17;;;;;;;7.30;5.10;;;;;;;5.88;55.91;100538.23;430654;1273;142584;-50
2022/05/19 03:55:23;;;;;;;6.90;5.20;;;;;;;6.78;53.78;100525.02;430116;1273;141723;-48
2022/05/19 04:05:29;;;;;;;10.60;5.60;;;;;;;7.91;51.78;100519.81;430642;1272;141773;-48
2022/05/19 04:15:35;;;;;;;10.00;4.40;;;;;;;14.57;48.03;100508.48;430536;1273;141604;-52
2022/05/19 04:25:41;;;;;;;10.20;5.90;;;;;;;22.10;37.89;100484.73;429836;1273;141446;-54
2022/05/19 04:35:47;;;;;;;7.30;4.70;;;;;;;26.54;30.81;100471.33;431579;1273;141599;-53
2022/05/19 04:45:55;;;;;;;8.60;4.30;;;;;;;28.95;26.21;100468.27;431183;1272;141243;-50
2022/05/19 04:56:01;;;;;;;14.20;5.10;;;;;;;32.40;22.71;100458.43;431473;1273;141827;-51
2022/05/19 05:06:07;;;;;;;6.70;4.20;;;;;;;33.13;19.95;100458.24;430159;1273;142457;-52
2022/05/19 05:16:13;;;;;;;8.00;3.30;;;;;;;31.02;19.40;100458.02;429838;1273;147467;-53
2022/05/19 05:26:17;;;;;;;;;;;;;;;35.08;18.16;100463.52;429324;1273;141363;-49
2022/05/19 05:36:23;;;;;;;7.10;4.00;;;;;;;40.63;15.04;100459.96;430706;1273;128280;-52
2022/05/19 05:46:28;;;;;;;8.50;4.30;;;;;;;43.89;13.18;100467.35;431427;1273;140774;-53
2022/05/19 05:56:34;;;;;;;10.50;4.50;;;;;;;46.56;11.37;100468.89;430998;1273;140620;-53
2022/05/19 06:06:40;;;;;;;7.30;3.50;;;;;;;46.79;10.17;100467.50;429882;1273;141474;-54
2022/05/19 06:16:46;;;;;;;3.80;3.20;;;;;;;48.38;9.33;100470.14;430739;1273;141473;-54
2022/05/19 06:26:52;;;;;;;5.00;3.10;;;;;;;49.30;8.28;100464.02;437618;1271;141834;-56
2022/05/19 06:36:58;;;;;;;4.20;3.30;;;;;;;50.99;7.55;100459.74;443888;1273;142182;-55
2022/05/19 06:47:09;;;;;;;4.70;4.20;;;;;;;52.19;6.86;100462.42;446458;1272;140850;-55
2022/05/19 06:57:16;;;;;;;5.30;5.00;;;;;;;53.11;6.45;100455.10;447214;1273;142098;-54
2022/05/19 07:07:22;;;;;;;6.60;6.10;;;;;;;53.41;6.00;100449.50;443528;1273;141413;-54
2022/05/19 07:17:28;;;;;;;9.20;8.70;;;;;;;54.40;5.31;100432.84;446535;1273;143592;-55
2022/05/19 07:27:34;;;;;;;12.50;11.80;;;;;;;55.41;4.93;100431.27;447276;1271;141335;-56
2022/05/19 07:37:40;;;;;;;10.50;10.10;;;;;;;54.03;5.04;100424.75;439298;1273;141521;-56
2022/05/19 07:47:46;;;;;;;8.40;7.80;;;;;;;53.46;4.94;100427.09;447267;1273;141634;-55
2022/05/19 07:57:52;;;;;;;18.00;3.80;;;;;;;51.13;5.31;100414.65;447265;1272;140889;-55
2022/05/19 08:07:58;;;;;;;3.60;1.70;;;;;;;43.38;6.80;100402.44;442517;1272;144026;-55
2022/05/19 08:18:05;;;;;;;4.20;2.20;;;;;;;36.45;9.10;100409.85;440768;1272;141591;-53
2022/05/19 08:28:14;;;;;;;3.90;1.40;;;;;;;32.96;11.04;100410.50;438895;1273;144872;-54
2022/05/19 08:38:20;;;;;;;5.50;1.20;;;;;;;31.30;12.44;100415.52;446438;1272;140936;-54
2022/05/19 08:48:28;;;;;;;4.40;2.10;;;;;;;29.55;13.33;100417.99;447210;1272;140849;-55
2022/05/19 08:58:57;;;;;;;10.00;1.10;;;;;;;28.21;14.60;100405.36;446909;1272;141917;-54
2022/05/19 09:09:17;;;;;;;4.30;1.30;;;;;;;27.74;15.32;100401.25;446827;1273;210914;-55
2022/05/19 09:19:32;;;;;;;3.60;1.60;;;;;;;27.09;16.08;100397.23;442950;1271;141201;-52
2022/05/19 09:29:41;;;;;;;5.30;1.10;;;;;;;26.45;16.75;100395.41;437374;1273;145254;-54
2022/05/19 09:39:54;;;;;;;2.50;1.50;;;;;;;26.14;17.57;100383.72;447211;1272;142193;-53
2022/05/19 09:50:11;;;;;;;4.80;1.20;;;;;;;25.98;18.13;100380.88;446388;1272;141900;-53
2022/05/19 10:00:26;;;;;;;4.20;1.30;;;;;;;25.90;18.44;100365.55;444853;1273;141248;-53
2022/05/19 10:10:33;;;;;;;5.20;1.40;;;;;;;25.72;18.77;100353.41;447041;1273;140475;-54
2022/05/19 10:20:49;;;;;;;1.40;1.20;;;;;;;25.58;19.21;100339.80;447112;1273;141823;-53
2022/05/19 10:31:12;;;;;;;4.70;1.30;;;;;;;25.56;19.33;100319.20;434831;1273;141088;-51
2022/05/19 10:41:35;;;;;;;11.90;2.30;;;;;;;25.17;19.53;100312.88;441748;1273;146505;-56
2022/05/19 10:51:53;;;;;;;6.40;1.20;;;;;;;24.81;19.88;100297.31;438038;1272;195016;-54
2022/05/19 11:02:10;;;;;;;1.50;1.20;;;;;;;24.56;20.80;100285.18;443171;1273;141471;-53
2022/05/19 11:12:24;;;;;;;;;;;;;;;24.55;20.99;100273.01;438495;1271;146071;-52
2022/05/19 11:22:33;;;;;;;1.80;1.60;;;;;;;24.46;21.14;100255.71;436029;1272;126998;-51
2022/05/19 11:32:40;;;;;;;2.20;1.20;;;;;;;24.43;21.23;100246.10;447114;1273;141338;-52
2022/05/19 11:42:51;;;;;;;14.90;2.60;;;;;;;24.50;21.13;100227.02;443489;1272;142423;-50
2022/05/19 12:03:36;;;;;;;1.70;1.40;;;;;;;24.53;20.98;100200.87;442003;1272;144666;-52
2022/05/19 12:13:47;;;;;;;3.90;1.50;;;;;;;24.54;21.09;100190.59;444912;1271;143535;-52
2022/05/19 12:23:53;;;;;;;2.00;0.90;;;;;;;24.62;20.76;100183.58;447109;1273;141600;-51
2022/05/19 12:34:01;;;;;;;3.90;1.10;;;;;;;24.75;20.89;100176.73;442540;1273;144064;-53
2022/05/19 12:44:45;;;;;;;5.60;2.60;;;;;;;24.71;20.45;100170.20;435038;1273;141013;-48
2022/05/19 12:55:32;;;;;;;3.70;1.40;;;;;;;24.80;20.60;100152.17;431127;1273;146357;-52
2022/05/19 13:05:43;;;;;;;2.40;1.30;;;;;;;24.80;20.74;100141.68;430837;1273;141173;-54
2022/05/19 13:15:54;;;;;;;1.90;1.40;;;;;;;24.84;20.78;100133.00;431050;1273;141760;-50
2022/05/19 13:26:04;;;;;;;3.60;1.00;;;;;;;24.77;20.46;100125.67;431454;1272;141841;-53
2022/05/19 13:36:12;;;;;;;2.50;1.00;;;;;;;24.71;20.37;100120.84;430765;1273;140925;-50
2022/05/19 13:46:20;;;;;;;4.70;1.70;;;;;;;24.82;20.83;100102.80;431204;1273;140374;-50
2022/05/19 13:56:37;;;;;;;9.30;3.70;;;;;;;25.01;20.50;100096.30;430643;1273;141766;-50
2022/05/19 14:06:43;;;;;;;4.30;1.40;;;;;;;25.20;20.31;100082.39;431607;1273;141718;-48
2022/05/19 14:16:50;;;;;;;3.90;1.30;;;;;;;25.41;20.53;100074.23;430050;1273;141006;-54
2022/05/19 14:26:59;;;;;;;3.00;0.80;;;;;;;25.45;19.36;100060.44;430009;1273;141110;-50
2022/05/19 14:37:16;;;;;;;8.30;1.60;;;;;;;25.47;19.13;100048.44;430321;1272;145885;-51
2022/05/19 14:47:24;;;;;;;1.90;1.70;;;;;;;25.42;18.96;100027.15;437855;1273;147393;-53
2022/05/19 14:57:33;;;;;;;3.10;1.10;;;;;;;25.41;18.26;100014.11;441670;1272;145038;-54
2022/05/19 15:07:43;;;;;;;4.10;1.00;;;;;;;25.43;17.41;100002.82;430071;1273;259821;-51
2022/05/19 15:17:49;;;;;;;2.20;0.80;;;;;;;25.37;17.40;99995.49;430660;1273;141287;-50
2022/05/19 15:27:56;;;;;;;4.50;1.30;;;;;;;25.36;17.63;99988.25;430605;1273;146025;-49
2022/05/19 15:38:02;;;;;;;7.30;1.20;;;;;;;25.51;17.60;99982.05;440222;1272;141591;-55
2022/05/19 15:48:09;;;;;;;4.00;1.00;;;;;;;25.50;17.64;99966.77;432986;1273;146569;-52
2022/05/19 15:58:15;;;;;;;4.60;1.10;;;;;;;25.36;17.19;99952.63;429584;1273;140617;-56
2022/05/19 16:08:21;;;;;;;5.40;1.10;;;;;;;25.07;17.17;99945.92;429452;1273;140866;-51
2022/05/19 16:18:27;;;;;;;7.30;2.10;;;;;;;24.78;17.60;99936.33;431063;1273;196661;-53
2022/05/19 16:28:33;;;;;;;2.70;1.20;;;;;;;24.60;18.15;99935.83;430998;1273;140670;-52
2022/05/19 16:38:39;;;;;;;4.00;1.20;;;;;;;24.43;18.95;99939.39;430059;1273;140803;-53
2022/05/19 16:48:47;;;;;;;4.40;1.20;;;;;;;24.25;19.67;99939.66;430334;1273;141168;-50
2022/05/19 16:58:53;;;;;;;8.80;1.80;;;;;;;24.05;20.24;99924.98;431993;1273;141283;-49
2022/05/19 17:08:58;;;;;;;5.70;1.40;;;;;;;23.97;20.92;99921.27;429895;1273;141913;-50
2022/05/19 17:19:04;;;;;;;4.60;1.40;;;;;;;23.75;21.26;99910.23;430032;1273;140834;-49
2022/05/19 17:29:11;;;;;;;7.30;1.20;;;;;;;23.29;21.93;99903.21;429213;1273;143083;-49
2022/05/19 17:39:17;;;;;;;5.30;1.70;;;;;;;22.87;22.45;99907.45;430360;1273;142609;-52
2022/05/19 17:49:22;;;;;;;23.50;3.20;;;;;;;22.42;23.39;99908.20;430468;1271;140823;-50
2022/05/19 17:59:28;;;;;;;11.50;2.90;;;;;;;21.94;24.95;99895.95;429678;1273;144046;-48
2022/05/19 18:09:34;;;;;;;6.20;2.50;;;;;;;21.36;26.21;99890.57;430701;1273;141129;-50
2022/05/19 18:19:40;;;;;;;17.20;3.30;;;;;;;20.80;26.65;99885.86;430022;1273;141914;-50
2022/05/19 18:29:46;;;;;;;13.30;4.80;;;;;;;20.26;27.77;99892.64;430439;1273;141534;-52
2022/05/19 18:39:52;;;;;;;7.10;3.10;;;;;;;19.67;29.53;99896.63;430723;1273;141354;-49
2022/05/19 18:49:58;;;;;;;19.70;4.40;;;;;;;19.11;31.15;99908.12;431866;1273;140922;-48
2022/05/19 19:00:07;;;;;;;7.30;3.40;;;;;;;18.64;33.01;99914.39;430457;1273;141062;-50
2022/05/19 19:10:14;;;;;;;14.80;6.00;;;;;;;18.21;34.21;99916.42;431054;1273;140604;-48
2022/05/19 19:20:19;;;;;;;13.00;4.50;;;;;;;17.76;35.49;99922.65;431616;1270;142672;-52
2022/05/19 19:30:26;;;;;;;15.10;4.50;;;;;;;17.25;36.59;99921.61;444740;1271;144308;-53
2022/05/19 19:40:32;;;;;;;13.10;3.90;;;;;;;16.80;37.88;99919.08;445276;1272;142450;-51
2022/05/19 20:01:00;;;;;;;10.30;5.20;;;;;;;15.98;40.56;99918.76;447116;1271;141220;-55
2022/05/19 20:11:06;;;;;;;10.80;4.50;;;;;;;15.61;41.52;99910.95;446360;1273;141277;-50
2022/05/19 20:21:12;;;;;;;8.50;4.90;;;;;;;15.27;42.50;99911.46;447211;1273;142012;-50
2022/05/19 20:31:18;;;;;;;7.60;5.30;;;;;;;14.95;43.04;99905.65;445030;1272;140703;-52
2022/05/19 20:41:24;;;;;;;12.50;5.40;;;;;;;14.72;42.46;99886.20;443664;1272;141911;-53
2022/05/19 20:51:30;;;;;;;5.50;3.50;;;;;;;14.56;42.56;99867.89;431460;1273;140823;-50
2022/05/19 21:01:36;;;;;;;9.20;4.20;;;;;;;14.34;42.69;99855.73;429945;1273;163991;-51
2022/05/19 21:11:42;;;;;;;5.50;3.70;;;;;;;14.16;42.50;99851.50;435981;1273;141970;-51
2022/05/19 21:21:48;;;;;;;8.60;3.60;;;;;;;14.03;42.76;99852.46;432114;1273;141778;-50
2022/05/19 21:31:56;;;;;;;5.20;3.60;;;;;;;13.87;43.75;99845.90;433793;1273;141161;-51
2022/05/19 21:42:03;;;;;;;7.10;3.70;;;;;;;13.69;44.25;99830.11;435223;1273;144921;-50
2022/05/19 22:02:33;;;;;;;7.00;4.00;;;;;;;13.35;44.29;99823.73;443916;1272;142742;-52
2022/05/19 22:12:39;;;;;;;3.60;1.80;;;;;;;13.30;44.42;99825.33;438003;1270;142160;-48
2022/05/19 22:22:45;;;;;;;4.70;2.30;;;;;;;13.41;43.19;99811.89;445073;1272;142181;-52
2022/05/19 22:32:50;;;;;;;3.80;1.60;;;;;;;13.65;42.53;99810.71;447074;1273;141059;-52
2022/05/19 22:42:56;;;;;;;3.40;1.70;;;;;;;13.82;42.23;99812.63;442279;1272;141318;-51
2022/05/19 22:53:03;;;;;;;2.80;1.60;;;;;;;13.88;41.91;99801.09;446602;1273;141161;-51
2022/05/19 23:03:10;;;;;;;3.10;2.10;;;;;;;13.96;41.73;99800.29;438379;1273;141931;-53
2022/05/19 23:13:17;;;;;;;6.50;1.80;;;;;;;13.96;41.84;99793.11;437053;1273;140667;-50
2022/05/19 23:23:23;;;;;;;5.30;2.90;;;;;;;13.93;41.83;99792.80;435298;1273;140791;-52
2022/05/19 23:33:29;;;;;;;5.80;1.90;;;;;;;13.88;41.83;99783.85;437293;1271;140186;-49
2022/05/19 23:43:35;;;;;;;4.20;2.40;;;;;;;13.86;41.85;99768.31;446391;1272;140587;-53
2022/05/19 23:53:42;;;;;;;3.70;1.60;;;;;;;13.83;41.83;99756.74;444372;1273;141202;-53
